• Join FlightAware (Why Join?)
  • Login
  • US Flag 
Gobble Gobble! 
06:05PM EST


 

Airport Tracker/Info


-or-


 

Live Flight TrackerFlight Track Log ✈ LXJ542 ✈ 02-Nov-2013 ✈ KGKY - KMTJ

Flight Track Log - Related Links

Times and Time Zones

All times are in EDT time to prevent confusion due to time zone crossing. See the LXJ542 flight status page for this flight to view local times or setup timezone preferences in your user account.

Time Position Orientation Groundspeed Altitude Reporting Facility
EDT Latitude Longitude Course Direction KTS MPH feet Rate Location/Type
02:58PM 32.6667 -97.1000 288° West 163 188 900  Level Dallas / Fort Worth TRACON
02:59PM 32.7000 -97.1167 337° Northwest 206 237 2,000 1,920 Climbing Dallas / Fort Worth TRACON
02:59PM 32.7078 -97.1642 281° West 214 246 3,500 2,700 Climbing Fort Worth Center
03:01PM 32.7581 -97.3122 292° West 251 289 8,900 2,400 Climbing Fort Worth Center
03:02PM 32.7958 -97.3592 314° West 257 296 10,700 2,820 Climbing Fort Worth Center
03:03PM 32.8542 -97.4308 314° West 262 302 14,600 2,880 Climbing Fort Worth Center
03:04PM 33.0531 -97.7195 288° West  Level Estimated
03:04PM 32.9022 -97.4925 313° West 273 314 16,500  Level Fort Worth Center
03:05PM 32.9628 -97.5669 314° West 279 321 20,000 3,060 Climbing Fort Worth Center
03:06PM 33.0189 -97.6414 312° West 296 341 22,700 2,100 Climbing Fort Worth Center
03:07PM 33.0794 -97.7183 313° West 324 373 24,200 1,680 Climbing Fort Worth Center
03:08PM 33.1228 -97.8278 295° West 346 398 26,100 1,920 Climbing Fort Worth Center
03:09PM 33.1600 -97.9494 290° West 369 425 28,100 1,980 Climbing Fort Worth Center
03:10PM 33.1989 -98.0689 291° West 383 441 30,100 1,980 Climbing Fort Worth Center
03:11PM 33.2358 -98.1908 290° West 395 455 32,100 1,680 Climbing Fort Worth Center
03:12PM 33.2747 -98.3153 291° West 395 455 33,500 1,440 Climbing Fort Worth Center
03:13PM 33.3114 -98.4375 290° West 395 455 35,000 1,500 Climbing Fort Worth Center
03:14PM 33.3542 -98.5625 292° West 395 455 36,600 1,740 Climbing Fort Worth Center
03:15PM 33.4136 -98.6753 302° West 395 455 38,500 1,920 Climbing Fort Worth Center
03:16PM 33.4792 -98.7783 307° West 395 455 40,500 1,560 Climbing Fort Worth Center
03:17PM 33.5428 -98.8814 307° West 395 455 41,700 900 Climbing Fort Worth Center
03:18PM 33.6083 -98.9872 307° West 395 455 42,300 540 Climbing Fort Worth Center
03:19PM 33.6758 -99.0933 307° West 395 455 42,800 300 Climbing Fort Worth Center
03:20PM 33.7389 -99.1969 306° West 388 447 43,000 60 Climbing Fort Worth Center
03:21PM 33.8103 -99.3108 307° West 399 459 43,000  Level Fort Worth Center
03:22PM 33.8756 -99.4172 306° West 405 466 43,000  Level Fort Worth Center
03:23PM 33.9447 -99.5267 307° West 410 472 43,000  Level Fort Worth Center
03:24PM 34.0117 -99.6358 307° West 410 472 43,000  Level Fort Worth Center
03:25PM 34.0764 -99.7456 305° West 410 472 43,000  Level Fort Worth Center
03:26PM 34.1431 -99.8578 306° West 410 472 43,000  Level Fort Worth Center
03:27PM 34.2119 -99.9700 307° West 410 472 43,000  Level Fort Worth Center
03:30PM 34.3864 -100.2547 307° West 413 475 43,000  Level Albuquerque Center
03:31PM 34.4533 -100.3675 306° West 413 475 43,000  Level Albuquerque Center
03:32PM 34.5206 -100.4803 306° West 414 476 43,000  Level Albuquerque Center
03:33PM 34.5875 -100.5933 306° West 414 476 43,000  Level Albuquerque Center
03:34PM 34.6539 -100.7044 306° West 409 471 43,000  Level Albuquerque Center
03:35PM 34.7217 -100.8175 306° West 412 474 43,000  Level Albuquerque Center
03:36PM 34.7875 -100.9300 305° West 411 473 43,000  Level Albuquerque Center
03:37PM 34.8547 -101.0428 306° West 412 474 43,000  Level Albuquerque Center
03:38PM 34.9336 -101.1789 305° West 410 472 43,000  Level Albuquerque Center
03:39PM 35.0000 -101.2917 306° West 410 472 43,000  Level Albuquerque Center
03:40PM 35.0575 -101.3911 305° West 411 473 43,000  Level Albuquerque Center
03:41PM 35.1400 -101.5297 306° West 417 480 43,000  Level Albuquerque Center
03:42PM 35.2039 -101.6436 304° West 411 473 43,000  Level Albuquerque Center
03:43PM 35.2714 -101.7614 305° West 412 474 43,000  Level Albuquerque Center
03:44PM 35.3364 -101.8792 304° West 413 475 43,000  Level Albuquerque Center
03:45PM 35.3950 -101.9953 302° West 412 474 43,000  Level Albuquerque Center
03:46PM 35.4589 -102.1122 304° West 413 475 43,000  Level Albuquerque Center
03:47PM 35.5228 -102.2294 304° West 414 476 43,000  Level Albuquerque Center
03:48PM 35.5856 -102.3472 303° West 414 476 43,000  Level Albuquerque Center
03:49PM 35.6614 -102.4881 304° West 413 475 43,000  Level Albuquerque Center
03:50PM 35.7233 -102.6072 303° West 413 475 43,000  Level Albuquerque Center
03:51PM 35.7867 -102.7258 303° West 415 478 43,000  Level Albuquerque Center
03:52PM 35.8494 -102.8442 303° West 415 478 43,000  Level Albuquerque Center
03:53PM 35.9161 -102.9706 303° West 414 476 43,000  Level Albuquerque Center
03:55PM 35.9800 -103.0894 304° West 413 475 43,000  Level Albuquerque Center
03:56PM 36.0419 -103.2097 303° West 413 475 43,000  Level Albuquerque Center
03:57PM 36.1042 -103.3300 303° West 413 475 43,000  Level Albuquerque Center
03:58PM 36.1678 -103.4522 303° West 418 481 43,000  Level Albuquerque Center
03:59PM 36.2297 -103.5722 303° West 415 478 43,000  Level Albuquerque Center
04:00PM 36.2925 -103.6947 302° West 416 479 43,000  Level Albuquerque Center
04:01PM 36.3547 -103.8169 302° West 417 480 43,000  Level Albuquerque Center
04:02PM 36.4278 -103.9606 302° West 418 481 43,000  Level Albuquerque Center
04:03PM 36.4897 -104.0819 302° West 416 479 43,000  Level Albuquerque Center
04:04PM 36.5517 -104.2019 303° West 412 474 43,000  Level Albuquerque Center
04:05PM 36.6139 -104.3236 303° West 412 474 43,000  Level Albuquerque Center
04:06PM 36.6747 -104.4469 302° West 415 478 43,000  Level Albuquerque Center
04:07PM 36.7369 -104.5692 302° West 416 479 43,000  Level Albuquerque Center
04:08PM 36.7983 -104.6928 302° West 416 479 43,000  Level Albuquerque Center
04:09PM 36.8608 -104.8153 303° West 415 478 43,000 -240 Level Albuquerque Center
04:10PM 36.9103 -104.9144 302° West 417 480 42,600 -1,080 Descending Denver Center
04:11PM 36.9689 -105.0344 301° West 409 471 41,200 -1,500 Descending Denver Center
04:12PM 37.0331 -105.1650 302° West 406 467 39,600 -1,500 Descending Denver Center
04:13PM 37.0892 -105.2803 301° West 405 466 38,200 -1,380 Descending Denver Center
04:14PM 37.1472 -105.4014 301° West 416 479 36,800 -1,560 Descending Denver Center
04:15PM 37.2172 -105.5406 302° West 420 483 35,100 -1,620 Descending Denver Center
04:16PM 37.2731 -105.6547 302° West 405 466 33,600 -1,560 Descending Denver Center
04:17PM 37.3356 -105.7869 301° West 412 474 32,000 -1,500 Descending Denver Center
04:18PM 37.4014 -105.9061 305° West 429 494 30,600 -1,560 Descending Denver Center
04:19PM 37.4819 -106.0467 306° West 442 509 28,900 -1,560 Descending Denver Center
04:20PM 37.5525 -106.1681 306° West 447 514 27,500 -960 Descending Denver Center
04:21PM 37.6297 -106.3033 306° West 430 495 27,000 -300 Descending Denver Center
04:22PM 37.6919 -106.4144 305° West 410 472 27,000  Level Denver Center
04:23PM 37.7558 -106.5278 306° West 412 474 27,000  Level Denver Center
04:24PM 37.8339 -106.6700 305° West 427 491 27,000 -120 Level Denver Center
04:25PM 37.9011 -106.7867 306° West 429 494 26,800 -960 Descending Denver Center
04:26PM 37.9744 -106.9183 305° West 424 488 25,100 -1,560 Descending Denver Center
04:27PM 38.0350 -107.0281 305° West 404 465 23,700 -1,500 Descending Denver Center
04:28PM 38.1019 -107.1500 305° West 393 452 22,100 -1,500 Descending Denver Center
04:29PM 38.1556 -107.2475 305° West 389 448 20,700 -1,620 Descending Denver Center
04:30PM 38.2281 -107.3789 305° West 381 438 18,900 -1,500 Descending Denver Center
04:31PM 38.2864 -107.4869 305° West 374 430 17,700 -1,200 Descending Denver Center